Time;durP1;ratioP1;P1;durP2;ratioP2;P2;SDS_P1;SDS_P2;PMS_P1;PMS_P2;Temp;Humidity;BMP_temperature;BMP_pressure;BME280_temperature;BME280_humidity;BME280_pressure;Samples;Min_cycle;Max_cycle;Signal;HPM_P1;HPM_P2
2022/10/07 00:02:17;;;;;;;4.30;3.90;;;;;;;14.41;84.20;100463.75;1721846;81;20927;-74
2022/10/07 00:04:44;;;;;;;4.20;3.80;;;;;;;14.39;84.28;100464.43;1721752;81;21014;-74
2022/10/07 00:07:13;;;;;;;5.35;3.85;;;;;;;14.35;84.27;100468.44;1720400;81;21002;-74
2022/10/07 00:09:40;;;;;;;4.15;3.70;;;;;;;14.33;84.26;100467.28;1716925;82;21417;-73
2022/10/07 00:12:06;;;;;;;7.55;3.90;;;;;;;14.32;84.14;100467.44;1719213;82;21189;-73
2022/10/07 00:14:33;;;;;;;3.83;3.52;;;;;;;14.28;84.12;100466.93;1719206;83;21023;-74
2022/10/07 00:17:00;;;;;;;5.12;4.05;;;;;;;14.25;84.30;100465.92;1719257;82;21427;-74
2022/10/07 00:19:27;;;;;;;4.58;3.95;;;;;;;14.26;84.39;100470.78;1719340;82;21018;-74
2022/10/07 00:21:54;;;;;;;5.58;5.15;;;;;;;14.23;84.54;100467.95;1719197;82;20970;-75
2022/10/07 00:24:20;;;;;;;5.53;3.55;;;;;;;14.22;84.56;100467.59;1719302;83;21891;-75
2022/10/07 00:26:47;;;;;;;4.60;4.20;;;;;;;14.21;84.59;100465.91;1719341;82;20970;-74
2022/10/07 00:29:14;;;;;;;4.20;3.90;;;;;;;14.21;84.70;100472.11;1719194;82;21484;-74
2022/10/07 00:31:41;;;;;;;4.78;4.03;;;;;;;14.17;84.71;100468.11;1719316;82;20875;-74
2022/10/07 00:34:10;;;;;;;6.87;4.10;;;;;;;14.15;84.67;100461.27;1716865;82;21456;-74
2022/10/07 00:36:36;;;;;;;4.35;3.60;;;;;;;14.12;84.82;100466.45;1719419;82;21142;-74
2022/10/07 00:39:09;;;;;;;6.90;4.33;;;;;;;14.11;84.98;100469.28;1719196;82;21631;-74
2022/10/07 00:41:43;;;;;;;4.12;3.72;;;;;;;14.08;84.98;100468.27;1719365;82;21463;-74
2022/10/07 00:44:37;;;;;;;6.40;4.40;;;;;;;14.03;85.00;100471.95;1719189;82;21595;-74
2022/10/07 00:47:29;;;;;;;5.75;4.10;;;;;;;14.00;85.03;100473.12;1719258;83;20906;-74
2022/10/07 00:50:16;;;;;;;4.67;4.28;;;;;;;13.96;85.22;100479.00;1699391;82;21237;-74
2022/10/07 00:52:58;;;;;;;5.92;3.95;;;;;;;13.91;85.37;100479.50;1719375;82;21208;-73
2022/10/07 00:55:26;;;;;;;4.83;3.85;;;;;;;13.88;85.46;100473.64;1717842;82;21038;-73
2022/10/07 00:57:56;;;;;;;4.08;3.70;;;;;;;13.83;85.52;100471.97;1719247;83;20922;-73
2022/10/07 01:00:22;;;;;;;3.80;3.50;;;;;;;13.81;85.48;100478.00;1719294;82;21078;-73
2022/10/07 01:02:50;;;;;;;4.60;3.80;;;;;;;13.76;85.48;100474.99;1719349;83;21262;-74
2022/10/07 01:05:17;;;;;;;5.45;4.15;;;;;;;13.72;85.52;100478.98;1719126;82;20982;-74
2022/10/07 01:07:46;;;;;;;4.92;3.75;;;;;;;13.69;85.55;100480.68;1724170;81;20946;-74
2022/10/07 01:10:17;;;;;;;4.95;4.05;;;;;;;13.64;85.70;100478.48;1742230;80;21057;-74
2022/10/07 01:13:05;;;;;;;4.85;3.58;;;;;;;13.63;85.82;100482.67;1745284;81;20930;-73
2022/10/07 01:16:02;;;;;;;3.90;3.60;;;;;;;13.58;85.94;100482.65;1726911;81;21012;-73
2022/10/07 01:18:57;;;;;;;4.42;4.03;;;;;;;13.56;86.15;100481.98;1745998;81;21479;-73
2022/10/07 01:22:01;;;;;;;5.25;3.85;;;;;;;13.50;86.17;100470.60;1727050;81;21491;-73
2022/10/07 01:25:13;;;;;;;5.10;3.87;;;;;;;13.46;86.32;100477.30;1709408;84;20946;-72
2022/10/07 01:27:46;;;;;;;4.42;4.08;;;;;;;13.42;86.39;100475.97;1721861;81;21010;-73
2022/10/07 01:30:14;;;;;;;4.28;3.87;;;;;;;13.39;86.50;100484.80;1702126;83;21091;-72
2022/10/07 01:32:55;;;;;;;4.33;3.75;;;;;;;13.36;86.64;100488.64;1720567;83;20952;-72
2022/10/07 01:35:25;;;;;;;4.47;3.70;;;;;;;13.35;86.65;100477.60;1720384;81;20954;-73
2022/10/07 01:37:59;;;;;;;4.47;4.03;;;;;;;13.31;86.66;100477.61;1721758;83;21041;-72
2022/10/07 01:40:31;;;;;;;4.53;4.12;;;;;;;13.30;86.75;100481.27;1721986;81;20990;-73
2022/10/07 01:43:00;;;;;;;4.72;4.28;;;;;;;13.29;86.82;100481.44;1721729;81;21145;-73
2022/10/07 01:45:27;;;;;;;5.47;5.00;;;;;;;13.27;86.90;100486.12;1721879;81;20930;-74
2022/10/07 01:47:53;;;;;;;5.60;5.10;;;;;;;13.25;86.84;100484.93;1721643;81;20918;-73
2022/10/07 01:50:23;;;;;;;5.22;4.75;;;;;;;13.20;86.81;100487.25;1721858;83;21009;-74
2022/10/07 01:53:14;;;;;;;5.35;4.87;;;;;;;13.16;86.85;100487.26;1721636;81;21013;-73
2022/10/07 01:55:56;;;;;;;5.22;4.70;;;;;;;13.14;86.93;100495.10;1721812;81;21085;-74
2022/10/07 01:58:46;;;;;;;5.03;4.62;;;;;;;13.09;86.94;100494.23;1721739;81;21225;-73
2022/10/07 02:01:53;;;;;;;5.33;4.83;;;;;;;13.07;87.04;100496.72;1721663;83;20950;-73
2022/10/07 02:04:37;;;;;;;5.25;4.42;;;;;;;13.02;87.01;100501.19;1705474;83;21009;-73
2022/10/07 02:07:30;;;;;;;6.30;4.83;;;;;;;12.97;86.89;100504.35;1721970;83;20946;-72
2022/10/07 02:10:42;;;;;;;5.03;4.40;;;;;;;12.94;86.81;100510.01;1722032;83;21752;-73
2022/10/07 02:13:30;;;;;;;4.37;3.95;;;;;;;12.87;86.51;100513.48;1710409;82;20859;-73
2022/10/07 02:16:04;;;;;;;4.50;4.10;;;;;;;12.79;86.52;100518.78;1722081;81;20990;-73
2022/10/07 02:18:32;;;;;;;5.33;4.70;;;;;;;12.70;86.51;100521.05;1722114;81;20871;-73
2022/10/07 02:20:59;;;;;;;5.12;4.62;;;;;;;12.60;86.40;100527.85;1722052;81;20923;-73
2022/10/07 02:23:26;;;;;;;5.72;5.22;;;;;;;12.54;86.37;100529.81;1721955;81;21097;-73
2022/10/07 02:25:53;;;;;;;4.83;4.15;;;;;;;12.49;86.31;100534.78;1721987;81;21013;-73
2022/10/07 02:28:22;;;;;;;4.72;3.90;;;;;;;12.44;86.36;100526.91;1721963;81;21005;-73
2022/10/07 02:30:53;;;;;;;6.33;4.47;;;;;;;12.40;86.37;100531.73;1702217;82;20902;-73
2022/10/07 02:33:21;;;;;;;5.42;4.85;;;;;;;12.35;86.41;100537.55;1721982;81;21655;-73
2022/10/07 02:35:58;;;;;;;5.85;5.25;;;;;;;12.32;86.47;100539.69;1721904;81;21144;-73
2022/10/07 02:38:26;;;;;;;5.40;4.90;;;;;;;12.26;86.49;100535.80;1722065;81;21484;-73
2022/10/07 02:41:08;;;;;;;5.85;5.25;;;;;;;12.21;86.55;100540.77;1722004;81;21009;-72
2022/10/07 02:43:52;;;;;;;7.87;4.85;;;;;;;12.19;86.75;100540.09;1721870;83;20966;-73
2022/10/07 02:46:29;;;;;;;5.95;4.70;;;;;;;12.17;86.88;100543.42;1721869;81;21002;-72
2022/10/07 02:49:01;;;;;;;4.65;4.25;;;;;;;12.14;87.03;100543.73;1721922;81;21237;-73
2022/10/07 02:51:37;;;;;;;4.22;3.83;;;;;;;12.10;87.12;100542.34;1722056;81;20879;-73
2022/10/07 02:54:05;;;;;;;4.22;3.83;;;;;;;12.06;87.18;100547.66;1699927;83;21484;-74
2022/10/07 02:56:33;;;;;;;4.90;3.65;;;;;;;12.02;87.14;100553.46;1721846;81;20963;-73
2022/10/07 02:59:00;;;;;;;3.25;2.87;;;;;;;11.95;87.14;100549.22;1701555;83;20947;-74
2022/10/07 03:01:31;;;;;;;7.97;4.00;;;;;;;11.92;87.22;100546.86;1725848;81;21176;-73
2022/10/07 03:03:57;;;;;;;4.25;3.95;;;;;;;11.89;87.29;100551.16;1721809;81;20970;-73
2022/10/07 03:06:28;;;;;;;4.97;3.95;;;;;;;11.86;87.23;100550.16;1726214;81;20908;-72
2022/10/07 03:08:56;;;;;;;12.03;4.28;;;;;;;11.81;87.18;100550.27;1724946;81;20966;-74
2022/10/07 03:11:23;;;;;;;4.97;3.70;;;;;;;11.75;87.11;100552.55;1721941;81;20989;-72
2022/10/07 03:13:50;;;;;;;16.25;3.62;;;;;;;11.71;86.99;100551.65;1721867;81;21142;-73
2022/10/07 03:16:18;;;;;;;3.33;3.02;;;;;;;11.65;87.14;100550.39;1721685;83;20997;-73
2022/10/07 03:18:45;;;;;;;3.27;2.98;;;;;;;11.61;87.19;100552.19;1721811;83;21530;-73
2022/10/07 03:21:19;;;;;;;3.62;3.33;;;;;;;11.58;87.20;100553.33;1721648;81;21022;-73
2022/10/07 03:23:51;;;;;;;4.03;3.72;;;;;;;11.52;87.14;100563.77;1721866;81;20946;-73
2022/10/07 03:26:18;;;;;;;3.30;3.00;;;;;;;11.48;87.15;100563.70;1721897;81;21808;-73
2022/10/07 03:28:45;;;;;;;3.12;2.90;;;;;;;11.45;87.22;100561.33;1721788;81;20902;-74
2022/10/07 03:31:14;;;;;;;3.90;3.60;;;;;;;11.41;87.13;100558.64;1721931;81;20995;-73
2022/10/07 03:33:42;;;;;;;6.25;3.85;;;;;;;11.37;87.07;100558.58;1721683;81;21500;-73
2022/10/07 03:36:09;;;;;;;3.37;2.40;;;;;;;11.30;86.86;100565.01;1721798;81;21065;-73
2022/10/07 03:38:37;;;;;;;2.17;2.08;;;;;;;11.25;86.73;100562.44;1721930;81;21488;-73
2022/10/07 03:41:05;;;;;;;11.30;2.30;;;;;;;11.21;86.72;100565.88;1721807;81;21057;-73
2022/10/07 03:43:32;;;;;;;9.50;2.50;;;;;;;11.18;86.75;100561.69;1721973;83;20945;-73
2022/10/07 03:46:01;;;;;;;4.75;2.40;;;;;;;11.13;86.79;100565.30;1721919;81;21449;-73
2022/10/07 03:48:29;;;;;;;10.15;4.15;;;;;;;11.08;86.79;100569.37;1722028;81;20943;-73
2022/10/07 03:50:59;;;;;;;7.95;4.08;;;;;;;11.00;86.80;100567.45;1721919;81;21237;-73
2022/10/07 03:53:28;;;;;;;5.17;3.72;;;;;;;10.96;86.75;100571.90;1721887;83;21053;-73
2022/10/07 03:55:56;;;;;;;6.97;4.25;;;;;;;10.89;86.72;100570.33;1721939;81;20985;-73
2022/10/07 03:58:23;;;;;;;6.87;4.42;;;;;;;10.82;86.64;100568.39;1721856;81;21066;-73
2022/10/07 04:00:49;;;;;;;8.93;5.58;;;;;;;10.74;86.49;100565.10;1721914;81;20878;-73
2022/10/07 04:03:17;;;;;;;15.83;5.85;;;;;;;10.67;86.38;100566.67;1721980;83;21824;-73
2022/10/07 04:05:59;;;;;;;9.95;6.20;;;;;;;10.58;86.28;100568.04;1721561;83;21030;-73
2022/10/07 04:08:27;;;;;;;9.13;4.90;;;;;;;10.52;86.23;100569.45;1718223;83;20999;-72
2022/10/07 04:10:56;;;;;;;10.50;4.40;;;;;;;10.46;86.17;100571.34;1716442;83;21513;-72
2022/10/07 04:13:23;;;;;;;3.85;3.55;;;;;;;10.39;86.28;100568.44;1716427;82;21032;-72
2022/10/07 04:15:50;;;;;;;4.45;4.05;;;;;;;10.33;86.38;100570.80;1715156;83;21840;-73
2022/10/07 04:18:18;;;;;;;5.40;4.12;;;;;;;10.28;86.52;100573.91;1747715;81;20994;-75
2022/10/07 04:20:45;;;;;;;19.45;6.87;;;;;;;10.22;86.68;100576.30;1733129;81;20949;-74
2022/10/07 04:23:12;;;;;;;13.45;8.93;;;;;;;10.20;86.99;100576.91;1747391;81;20887;-74
2022/10/07 04:25:44;;;;;;;9.60;4.72;;;;;;;10.21;87.36;100574.12;1747622;81;21452;-74
2022/10/07 04:28:17;;;;;;;9.08;4.62;;;;;;;10.24;87.65;100573.01;1747541;81;21072;-73
2022/10/07 04:30:44;;;;;;;6.28;4.22;;;;;;;10.23;87.74;100570.83;1737106;81;21020;-73
2022/10/07 04:33:11;;;;;;;5.42;3.98;;;;;;;10.21;87.82;100574.61;1746104;81;20886;-72
2022/10/07 04:35:39;;;;;;;8.48;3.80;;;;;;;10.21;87.86;100579.94;1747378;81;20867;-73
2022/10/07 04:38:09;;;;;;;5.12;4.22;;;;;;;10.20;87.84;100580.42;1747558;81;20969;-73
2022/10/07 04:40:45;;;;;;;4.40;3.98;;;;;;;10.20;87.94;100576.91;1742775;81;21905;-73
2022/10/07 04:43:19;;;;;;;7.22;5.42;;;;;;;10.17;88.11;100582.02;1712479;81;20914;-74
2022/10/07 04:46:05;;;;;;;6.67;5.12;;;;;;;10.18;88.25;100583.72;1732031;81;20984;-72
2022/10/07 04:48:34;;;;;;;5.45;4.00;;;;;;;10.19;88.50;100581.90;1702664;82;21024;-73
2022/10/07 04:51:07;;;;;;;5.47;3.30;;;;;;;10.23;88.79;100581.95;1731856;81;20929;-73
2022/10/07 04:53:35;;;;;;;4.25;3.05;;;;;;;10.29;88.97;100582.24;1698395;84;21910;-73
2022/10/07 04:56:03;;;;;;;4.65;3.50;;;;;;;10.32;89.06;100575.31;1723762;81;20938;-72
2022/10/07 04:58:30;;;;;;;4.47;3.42;;;;;;;10.38;89.23;100583.19;1732056;81;20910;-74
2022/10/07 05:00:58;;;;;;;3.17;2.87;;;;;;;10.44;89.42;100579.97;1731977;82;21029;-71
2022/10/07 05:03:27;;;;;;;7.10;3.15;;;;;;;10.47;89.49;100583.19;1730659;81;20922;-74
2022/10/07 05:05:55;;;;;;;5.78;5.28;;;;;;;10.52;89.65;100590.25;1717533;82;21110;-73
2022/10/07 05:08:23;;;;;;;17.10;10.80;;;;;;;10.63;89.86;100583.08;1728413;82;21436;-73
2022/10/07 05:10:57;;;;;;;28.87;19.12;;;;;;;10.74;89.97;100585.06;1726709;82;20993;-73
2022/10/07 05:13:25;;;;;;;21.62;15.00;;;;;;;10.87;90.01;100592.23;1742038;81;21013;-73
2022/10/07 05:16:00;;;;;;;18.42;13.78;;;;;;;10.98;89.91;100595.21;1753317;80;21008;-73
2022/10/07 05:18:28;;;;;;;12.80;10.03;;;;;;;11.05;89.69;100599.80;1698948;82;21249;-73
2022/10/07 05:20:56;;;;;;;11.80;9.38;;;;;;;11.16;89.60;100596.12;1739669;81;21027;-73
2022/10/07 05:23:24;;;;;;;12.93;8.55;;;;;;;11.25;89.45;100595.73;1746108;82;21102;-73
2022/10/07 05:25:59;;;;;;;11.25;8.63;;;;;;;11.34;89.36;100601.53;1753288;81;20939;-73
2022/10/07 05:28:26;;;;;;;8.80;7.95;;;;;;;11.43;89.19;100604.61;1753601;81;21650;-73
2022/10/07 05:31:09;;;;;;;15.75;8.30;;;;;;;11.51;88.98;100604.22;1755677;81;21779;-74
2022/10/07 05:33:37;;;;;;;11.63;7.95;;;;;;;11.60;88.83;100611.83;1749776;80;20911;-73
2022/10/07 05:36:06;;;;;;;7.80;6.90;;;;;;;11.67;88.85;100612.89;1758631;81;21566;-74
2022/10/07 05:38:33;;;;;;;14.80;7.42;;;;;;;11.74;88.86;100619.33;1761124;81;20899;-73
2022/10/07 05:41:02;;;;;;;9.00;6.92;;;;;;;11.82;88.91;100623.91;1755193;81;20907;-74
2022/10/07 05:43:34;;;;;;;16.15;7.35;;;;;;;11.90;89.02;100622.17;1740546;81;20922;-73
2022/10/07 05:46:05;;;;;;;9.25;7.22;;;;;;;11.98;89.08;100620.08;1747105;81;20927;-74
2022/10/07 05:48:34;;;;;;;12.07;7.58;;;;;;;12.04;89.13;100624.33;1741198;81;21010;-72
2022/10/07 05:51:02;;;;;;;10.10;8.03;;;;;;;12.15;89.28;100626.73;1745949;80;21711;-73
2022/10/07 05:53:29;;;;;;;9.25;8.35;;;;;;;12.24;89.41;100629.00;1716791;82;20866;-73
2022/10/07 05:55:55;;;;;;;12.68;9.73;;;;;;;12.36;89.56;100632.60;1753859;80;21224;-72
2022/10/07 05:58:23;;;;;;;16.05;8.45;;;;;;;12.50;89.70;100639.23;1727256;83;21008;-73
2022/10/07 06:00:54;;;;;;;10.88;8.50;;;;;;;12.63;89.80;100637.48;1753549;81;20902;-72
2022/10/07 06:03:21;;;;;;;9.08;8.18;;;;;;;12.73;89.84;100635.55;1758640;80;20918;-74
2022/10/07 06:05:51;;;;;;;8.68;7.60;;;;;;;12.91;89.85;100640.34;1759316;80;21471;-74
2022/10/07 06:08:19;;;;;;;8.58;7.10;;;;;;;13.11;89.48;100640.53;1756080;80;21779;-74
2022/10/07 06:13:33;;;;;;;;;;;;;;;13.41;88.30;100641.33;1740473;82;21002;-73
2022/10/07 06:16:05;;;;;;;9.65;8.00;;;;;;;13.58;87.76;100636.91;1716193;82;20654;-72
2022/10/07 06:18:31;;;;;;;15.63;9.43;;;;;;;13.72;87.41;100642.95;1729660;82;20943;-74
2022/10/07 06:21:00;;;;;;;12.07;9.35;;;;;;;13.83;87.28;100647.16;1714371;83;21819;-73
2022/10/07 06:23:27;;;;;;;14.30;9.75;;;;;;;13.90;87.06;100650.35;1729028;82;20945;-75
2022/10/07 06:26:01;;;;;;;10.55;8.63;;;;;;;13.95;86.75;100650.70;1720081;82;21060;-73
2022/10/07 06:28:37;;;;;;;13.20;8.25;;;;;;;13.98;86.48;100656.22;1710715;83;20950;-74
2022/10/07 06:31:16;;;;;;;10.38;9.28;;;;;;;14.02;86.35;100653.57;1697956;83;21001;-74
2022/10/07 06:33:43;;;;;;;22.02;9.13;;;;;;;14.08;86.34;100662.26;1731291;81;21556;-73
2022/10/07 06:36:11;;;;;;;9.43;8.48;;;;;;;14.17;86.21;100656.78;1703703;82;20977;-73
2022/10/07 06:38:44;;;;;;;11.68;9.13;;;;;;;14.28;86.01;100654.78;1717413;82;20927;-72
2022/10/07 06:41:12;;;;;;;14.30;9.25;;;;;;;14.35;85.70;100659.33;1725135;82;20876;-71
2022/10/07 06:43:38;;;;;;;11.50;9.10;;;;;;;14.40;85.47;100663.69;1722164;82;20944;-73
2022/10/07 06:46:07;;;;;;;9.98;8.23;;;;;;;14.53;85.31;100669.88;1728188;82;21223;-71
2022/10/07 06:48:35;;;;;;;19.12;9.13;;;;;;;14.67;84.74;100670.06;1725203;82;21013;-72
2022/10/07 06:51:02;;;;;;;10.82;8.38;;;;;;;14.80;84.20;100668.21;1722604;82;20931;-72
2022/10/07 06:53:30;;;;;;;9.88;8.18;;;;;;;14.94;83.68;100667.50;1746064;80;20879;-71
2022/10/07 06:56:02;;;;;;;13.65;8.10;;;;;;;15.09;83.20;100667.17;1718315;82;21006;-68
2022/10/07 06:58:30;;;;;;;9.58;8.50;;;;;;;15.23;82.83;100670.97;1719349;82;21097;-73
2022/10/07 07:00:58;;;;;;;10.85;8.75;;;;;;;15.32;82.38;100672.13;1719393;82;20954;-70
2022/10/07 07:03:25;;;;;;;9.50;8.65;;;;;;;15.39;81.98;100670.43;1719378;82;21032;-69
2022/10/07 07:05:53;;;;;;;9.75;8.75;;;;;;;15.46;81.35;100662.55;1719198;83;20898;-70
2022/10/07 07:08:23;;;;;;;12.63;9.35;;;;;;;15.53;80.91;100666.23;1719370;82;21595;-71
2022/10/07 07:10:50;;;;;;;10.03;8.60;;;;;;;15.65;80.45;100670.19;1715094;83;21244;-70
2022/10/07 07:13:17;;;;;;;9.20;8.30;;;;;;;15.77;79.54;100662.08;1716555;82;21094;-72
2022/10/07 07:15:58;;;;;;;10.35;8.10;;;;;;;15.90;78.69;100661.00;1718567;82;21001;-71
2022/10/07 07:18:26;;;;;;;12.30;8.13;;;;;;;15.97;78.11;100664.67;1700876;83;21021;-73
2022/10/07 07:20:53;;;;;;;12.47;8.53;;;;;;;16.02;77.77;100663.64;1719440;82;20899;-72
2022/10/07 07:23:20;;;;;;;9.00;8.20;;;;;;;16.06;77.32;100662.26;1719359;83;21211;-72
2022/10/07 07:25:47;;;;;;;8.28;7.50;;;;;;;16.06;76.76;100668.13;1719235;82;21072;-72
2022/10/07 07:28:14;;;;;;;7.62;6.92;;;;;;;16.10;76.43;100669.45;1719610;82;21448;-72
2022/10/07 07:30:41;;;;;;;7.83;7.12;;;;;;;16.22;75.94;100663.16;1719340;82;21444;-72
2022/10/07 07:33:08;;;;;;;8.70;7.90;;;;;;;16.44;75.62;100663.19;1719334;83;20902;-72
2022/10/07 07:35:40;;;;;;;7.92;7.12;;;;;;;16.61;74.99;100665.25;1719312;82;21535;-70
2022/10/07 07:38:07;;;;;;;8.10;7.40;;;;;;;16.76;74.46;100663.97;1701019;83;21029;-70
2022/10/07 07:40:38;;;;;;;8.25;7.30;;;;;;;16.94;73.68;100655.90;1719550;82;21527;-70
2022/10/07 07:43:05;;;;;;;8.10;7.30;;;;;;;17.13;72.83;100659.38;1719555;82;20930;-69
2022/10/07 07:45:35;;;;;;;7.95;7.15;;;;;;;17.24;71.75;100658.09;1719673;82;20898;-70
2022/10/07 07:48:04;;;;;;;7.25;6.55;;;;;;;17.27;70.67;100658.56;1719352;82;21591;-69
2022/10/07 07:50:31;;;;;;;8.40;7.05;;;;;;;17.27;69.91;100661.77;1719169;82;20950;-69
2022/10/07 07:53:01;;;;;;;8.15;7.45;;;;;;;17.26;69.34;100659.58;1719436;82;20966;-71
2022/10/07 07:55:27;;;;;;;10.15;6.83;;;;;;;17.29;68.94;100655.67;1719393;82;21452;-70
2022/10/07 07:57:54;;;;;;;7.17;6.58;;;;;;;17.31;68.89;100658.20;1719425;82;21129;-72
2022/10/07 08:00:21;;;;;;;7.72;6.92;;;;;;;17.32;68.66;100658.51;1719225;82;22177;-70
2022/10/07 08:02:54;;;;;;;7.28;6.60;;;;;;;17.28;68.70;100658.88;1718911;82;20934;-72
2022/10/07 08:05:21;;;;;;;8.13;7.37;;;;;;;17.34;68.83;100659.18;1719295;82;20970;-70
2022/10/07 08:07:48;;;;;;;7.90;7.17;;;;;;;17.39;68.51;100658.11;1719337;82;21468;-68
2022/10/07 08:10:16;;;;;;;8.45;7.72;;;;;;;17.44;68.08;100658.39;1719162;82;20918;-70
2022/10/07 08:12:42;;;;;;;7.67;6.97;;;;;;;17.47;67.71;100649.41;1708579;83;21143;-70
2022/10/07 08:15:10;;;;;;;8.18;7.47;;;;;;;17.50;67.58;100651.73;1710390;83;21416;-73
2022/10/07 08:17:39;;;;;;;9.55;8.55;;;;;;;17.56;67.53;100649.69;1719260;82;20907;-70
2022/10/07 08:20:09;;;;;;;8.73;7.95;;;;;;;17.61;67.56;100649.11;1719294;82;20998;-72
2022/10/07 08:22:35;;;;;;;9.00;7.72;;;;;;;17.83;67.67;100645.47;1719369;82;20954;-71
2022/10/07 08:25:04;;;;;;;8.33;7.67;;;;;;;18.50;67.39;100636.57;1719203;82;21145;-70
2022/10/07 08:27:32;;;;;;;8.50;7.08;;;;;;;19.14;65.57;100637.27;1719198;82;20946;-73
2022/10/07 08:29:58;;;;;;;8.60;7.80;;;;;;;19.23;64.32;100633.39;1719380;82;20980;-69
2022/10/07 08:32:25;;;;;;;8.43;7.03;;;;;;;19.35;63.98;100634.48;1719290;82;20958;-73
2022/10/07 08:34:51;;;;;;;10.20;8.13;;;;;;;19.91;63.51;100626.26;1719433;82;20855;-70
2022/10/07 08:37:19;;;;;;;7.67;6.97;;;;;;;20.67;61.90;100620.91;1719391;82;21749;-72
2022/10/07 08:39:45;;;;;;;10.15;7.08;;;;;;;21.47;59.72;100620.58;1719288;82;20989;-71
2022/10/07 08:42:37;;;;;;;8.10;6.70;;;;;;;22.28;57.26;100620.83;1720343;81;21428;-70
2022/10/07 08:45:09;;;;;;;7.08;6.30;;;;;;;23.01;54.57;100611.91;1692648;82;20989;-68
2022/10/07 08:47:42;;;;;;;7.72;5.37;;;;;;;23.75;51.66;100606.81;1719371;82;21049;-68
2022/10/07 08:50:29;;;;;;;5.42;4.92;;;;;;;24.36;49.04;100610.13;1719360;82;21231;-71
2022/10/07 08:53:07;;;;;;;6.50;5.90;;;;;;;24.87;47.15;100609.50;1719442;82;20983;-70
2022/10/07 08:56:15;;;;;;;5.97;5.20;;;;;;;25.31;45.62;100605.36;1719410;82;21071;-72
2022/10/07 08:58:54;;;;;;;6.40;4.20;;;;;;;25.74;43.81;100603.02;1719532;82;21436;-72
2022/10/07 09:01:32;;;;;;;5.15;4.58;;;;;;;26.19;41.96;100606.35;1712397;82;20998;-70
2022/10/07 09:04:33;;;;;;;4.25;3.77;;;;;;;26.49;40.99;100600.05;1719329;82;22551;-72
2022/10/07 09:07:03;;;;;;;5.45;4.50;;;;;;;26.93;40.07;100601.08;1719193;82;20963;-70
2022/10/07 09:09:41;;;;;;;5.15;4.65;;;;;;;27.52;38.77;100599.46;1722224;82;20989;-72
2022/10/07 09:12:25;;;;;;;7.58;5.10;;;;;;;28.03;37.57;100599.52;1709851;83;20989;-69
2022/10/07 09:14:55;;;;;;;5.93;4.60;;;;;;;28.39;36.68;100596.61;1721962;81;20859;-71
2022/10/07 09:17:37;;;;;;;6.22;5.33;;;;;;;28.76;35.29;100592.83;1722149;81;21947;-69
2022/10/07 09:20:15;;;;;;;7.30;5.10;;;;;;;29.06;35.02;100588.65;1722016;81;20961;-72
2022/10/07 09:22:43;;;;;;;9.08;4.95;;;;;;;29.22;34.15;100592.63;1722025;81;21006;-71
2022/10/07 09:25:20;;;;;;;5.37;3.80;;;;;;;29.55;33.34;100587.28;1722116;81;21483;-69
2022/10/07 09:27:49;;;;;;;6.50;4.17;;;;;;;29.91;32.49;100593.73;1722061;81;20997;-69
2022/10/07 09:30:15;;;;;;;4.08;3.67;;;;;;;30.18;31.38;100584.74;1722003;81;21307;-71
2022/10/07 09:32:44;;;;;;;8.15;3.77;;;;;;;30.44;30.83;100587.81;1722009;81;20990;-69
2022/10/07 09:35:14;;;;;;;5.28;3.80;;;;;;;30.73;30.37;100579.84;1722200;81;20898;-72
2022/10/07 09:38:07;;;;;;;2.85;2.60;;;;;;;31.01;29.80;100582.02;1721987;81;20986;-69
2022/10/07 09:43:26;;;;;;;6.20;3.17;;;;;;;31.85;28.42;100567.95;1722098;81;21112;-70
2022/10/07 09:45:55;;;;;;;3.40;3.10;;;;;;;32.23;27.84;100567.16;1721906;81;21499;-71
2022/10/07 09:48:25;;;;;;;3.90;3.00;;;;;;;32.56;26.94;100555.92;1721980;81;20938;-70
2022/10/07 09:50:51;;;;;;;5.92;2.40;;;;;;;32.81;26.61;100554.30;1721865;83;20962;-72
2022/10/07 09:53:23;;;;;;;5.10;2.85;;;;;;;33.01;26.01;100550.52;1678658;83;21009;-71
2022/10/07 09:55:51;;;;;;;6.22;3.87;;;;;;;33.00;25.86;100550.24;1721537;81;21129;-68
2022/10/07 09:58:29;;;;;;;8.35;5.15;;;;;;;33.08;25.49;100546.88;1721914;81;21037;-72
2022/10/07 10:01:00;;;;;;;2.98;2.77;;;;;;;33.17;25.34;100550.61;1722063;81;21067;-71
2022/10/07 10:03:29;;;;;;;2.90;2.22;;;;;;;33.27;25.18;100542.25;1721982;81;21492;-70
2022/10/07 10:06:00;;;;;;;6.22;2.42;;;;;;;33.19;24.78;100540.93;1722037;81;21061;-71
2022/10/07 10:08:35;;;;;;;3.15;2.33;;;;;;;32.86;24.48;100538.53;1722034;81;21138;-73
2022/10/07 10:11:05;;;;;;;2.83;2.10;;;;;;;32.24;25.00;100535.79;1722181;81;21734;-68
2022/10/07 10:13:39;;;;;;;6.08;2.37;;;;;;;31.43;25.47;100540.37;1722604;81;20902;-73
2022/10/07 10:16:33;;;;;;;3.92;2.37;;;;;;;30.46;26.61;100541.69;1721980;83;20963;-71
2022/10/07 10:19:05;;;;;;;3.40;2.20;;;;;;;29.53;27.67;100540.67;1714767;81;20993;-69
2022/10/07 10:21:41;;;;;;;2.22;1.95;;;;;;;28.62;28.73;100533.33;1720270;81;20937;-69
2022/10/07 10:24:14;;;;;;;3.90;2.37;;;;;;;28.02;29.44;100537.19;1718661;81;20950;-71
2022/10/07 10:26:55;;;;;;;2.75;1.90;;;;;;;27.61;29.66;100528.22;1722042;81;20909;-71
2022/10/07 10:29:54;;;;;;;2.45;2.22;;;;;;;27.22;30.03;100528.03;1721895;83;20918;-71
2022/10/07 10:32:49;;;;;;;2.90;1.82;;;;;;;26.75;30.65;100522.97;1722013;81;21499;-69
2022/10/07 10:35:26;;;;;;;2.72;1.50;;;;;;;26.35;31.29;100516.38;1722038;81;21288;-72
2022/10/07 10:38:31;;;;;;;2.10;1.65;;;;;;;26.00;31.85;100517.63;1721935;81;20883;-70
2022/10/07 10:41:03;;;;;;;4.58;1.62;;;;;;;25.69;32.02;100521.17;1721987;81;20930;-69
2022/10/07 10:43:36;;;;;;;2.33;1.40;;;;;;;25.40;32.08;100518.11;1721967;81;20871;-69
2022/10/07 10:46:14;;;;;;;2.98;1.42;;;;;;;25.20;32.20;100516.34;1721508;81;21041;-71
2022/10/07 10:48:56;;;;;;;2.65;1.67;;;;;;;25.03;32.59;100514.05;1722192;81;22000;-72
2022/10/07 10:52:02;;;;;;;4.67;2.25;;;;;;;24.90;33.16;100510.22;1721968;81;20946;-70
2022/10/07 10:54:57;;;;;;;6.22;1.45;;;;;;;24.85;33.50;100506.03;1721253;81;20879;-69
2022/10/07 10:57:48;;;;;;;2.02;1.30;;;;;;;24.81;32.76;100508.95;1707087;83;20977;-70
2022/10/07 11:00:20;;;;;;;2.62;1.77;;;;;;;24.73;33.05;100500.59;1721705;83;20978;-71
2022/10/07 11:03:08;;;;;;;2.98;1.70;;;;;;;24.71;33.39;100494.56;1722110;81;21185;-69
2022/10/07 11:05:36;;;;;;;5.10;1.72;;;;;;;24.70;33.40;100488.81;1706217;81;21005;-70
2022/10/07 11:08:11;;;;;;;3.27;1.60;;;;;;;24.51;33.49;100494.91;1721957;81;21013;-69
2022/10/07 11:10:42;;;;;;;2.65;1.55;;;;;;;24.32;33.58;100485.75;1718700;81;20978;-70
2022/10/07 11:13:23;;;;;;;3.83;1.95;;;;;;;24.07;33.70;100479.64;1716280;83;20950;-71
2022/10/07 11:16:18;;;;;;;4.25;2.22;;;;;;;24.03;34.01;100471.15;1716433;82;21660;-72
2022/10/07 11:19:00;;;;;;;3.45;2.60;;;;;;;24.05;34.35;100471.73;1712043;83;20993;-69
2022/10/07 11:21:33;;;;;;;2.80;1.62;;;;;;;24.02;34.05;100463.21;1714955;82;20981;-72
2022/10/07 11:24:22;;;;;;;4.55;2.42;;;;;;;23.94;33.78;100461.67;1716421;83;21413;-70
2022/10/07 11:26:52;;;;;;;6.00;4.72;;;;;;;23.94;33.76;100460.31;1716318;82;20954;-70
2022/10/07 11:29:52;;;;;;;7.42;5.53;;;;;;;23.96;33.90;100459.02;1716196;83;21283;-72
2022/10/07 11:32:40;;;;;;;5.47;4.90;;;;;;;23.95;33.81;100442.95;1737461;81;20958;-71
2022/10/07 11:35:36;;;;;;;6.75;4.62;;;;;;;23.80;33.81;100446.66;1719336;82;20989;-71
2022/10/07 11:38:15;;;;;;;6.97;2.87;;;;;;;23.67;33.76;100449.58;1699255;83;20883;-72
2022/10/07 11:40:52;;;;;;;2.85;1.90;;;;;;;23.57;34.18;100445.23;1719460;83;20903;-72
2022/10/07 11:43:45;;;;;;;4.87;2.00;;;;;;;23.48;34.25;100439.30;1719421;82;21201;-72
2022/10/07 11:46:17;;;;;;;2.00;1.45;;;;;;;23.41;34.27;100439.09;1719361;82;21069;-74
2022/10/07 11:48:55;;;;;;;2.72;1.75;;;;;;;23.34;34.44;100436.42;1719617;82;20938;-70
2022/10/07 11:51:39;;;;;;;4.50;1.85;;;;;;;23.28;34.40;100439.53;1719271;82;21513;-70
2022/10/07 11:54:09;;;;;;;4.08;1.72;;;;;;;23.21;34.59;100433.37;1719645;82;21009;-70
2022/10/07 11:56:51;;;;;;;5.75;2.85;;;;;;;23.11;34.83;100424.95;1719433;82;21402;-73
2022/10/07 11:59:46;;;;;;;5.25;2.00;;;;;;;23.08;34.92;100428.64;1719217;82;20946;-70